Aeroporto :
LOGIN :

Iscrizione | Disclaimer

   EN    FR    IT 

 










Sommario :    VFR   VFR Marginale   IFR   IFR Intensivo   IFR Molto Intensivo
Visibilità : 
Base nubi : 
>= 8 km
>= 3000ft
5 / 8 km
1000 / 3000 ft
1500m / 5 km
500 / 1000 ft
800 / 1500m
200 / 500 ft
< 800m
< 200 ft
Simboli :   Temporali  Nebbia  Neve Forte  Precipitazioni Forti  Vento > 20 kt
SIGMETs :   Varie  Temporali  Ghiacco  Turbolenza  Onda orograficha  Ceneri Vulcaniche






- Altitudine del aeroporto : -13 ft
- Codice IATA : LEY


EHLE - Lelystad

ULTIMO METAR :
  • 240825Z AUTO 21007KT 4400 BR FEW005 17/15 Q1015 BECMG 6000 NSW

METARs OBSOLETI :
  • 240755Z AUTO 21007KT 4500 BR BKN004 16/15 Q1015 TEMPO 2500
  • 240725Z AUTO 21006KT 7000 NSC 15/14 Q1015 TEMPO 4000 BR BKN005
  • 240655Z AUTO 22007KT 190V250 9999 BKN026 15/13 Q1015 NOSIG
  • 240625Z AUTO 20006KT 170V230 9999 OVC026 15/13 Q1015 NOSIG
  • 240555Z AUTO 21007KT 180V240 9999 OVC025 15/13 Q1015 NOSIG
  • 240525Z AUTO 21007KT 180V240 9999 OVC028 15/13 Q1015 NOSIG

TAF TAF EHLE
Valido dal 24 a 06 ore il 25 a 12 ore UTC


240518Z 2406/2512 23007KT 9999 BKN040
PROB30
TEMPO 2406/2409 4000 BR BKN004
BECMG 2408/2411 25015KT
BECMG 2418/2421 22007KT
PROB30 2503/2509 4000 BR BKN005



MetMap, La meteo Aeronautica in un colpo d'occhio ! - Copyright ORBIFLY Dicembre 2007 - Disclaimer

ORBIFLY MET'MAP TEAM :

Programmazione e sviluppo : Alexandra Zaïnal
Concezione : Baudouin d'Aumeries
Aiuto per la programmazione : Marc-Olivier Méhu
Supporto tecnico e logistico : Manuel Goepfert
Aiuto per la traduzione : Arnaldo La Scala

Contatto : metmap@orbifly.com




FONTI E CREDITI :

   NOAA